Time;durP1;ratioP1;P1;durP2;ratioP2;P2;SDS_P1;SDS_P2;PMS_P1;PMS_P2;Temp;Humidity;BMP_temperature;BMP_pressure;BME280_temperature;BME280_humidity;BME280_pressure;Samples;Min_cycle;Max_cycle;Signal;HPM_P1;HPM_P2
2021/06/05 00:02:40;;;;;;;3.33;3.00;;;;;;;17.46;100.00;99408.03;10499688;28;20617;-77
2021/06/05 00:07:59;;;;;;;5.43;3.90;;;;;;;17.21;100.00;99395.97;10496753;28;20300;-78
2021/06/05 00:13:25;;;;;;;4.27;3.60;;;;;;;17.22;100.00;99401.09;10498334;28;20214;-79
2021/06/05 00:18:47;;;;;;;4.00;3.70;;;;;;;17.19;100.00;99387.28;10499136;28;20182;-78
2021/06/05 00:24:08;;;;;;;6.00;3.67;;;;;;;17.13;100.00;99389.03;10497606;28;20606;-78
2021/06/05 00:29:27;;;;;;;4.00;3.50;;;;;;;17.11;100.00;99394.22;10498208;28;20211;-79
2021/06/05 00:34:46;;;;;;;4.00;3.60;;;;;;;17.04;100.00;99381.28;10497005;28;20226;-76
2021/06/05 00:40:08;;;;;;;5.70;3.90;;;;;;;16.97;100.00;99392.59;10497119;28;20171;-78
2021/06/05 00:45:30;;;;;;;6.87;4.60;;;;;;;16.94;100.00;99390.69;10497157;28;20186;-77
2021/06/05 00:50:51;;;;;;;4.60;3.77;;;;;;;16.87;100.00;99381.72;10495978;28;20186;-77
2021/06/05 00:56:12;;;;;;;7.97;5.03;;;;;;;16.81;100.00;99381.47;10497873;28;20224;-78
2021/06/05 01:01:31;;;;;;;4.57;3.23;;;;;;;16.95;100.00;99372.81;10496904;28;20249;-78
2021/06/05 01:06:56;;;;;;;5.00;4.27;;;;;;;16.87;100.00;99365.84;10495252;28;20249;-77
2021/06/05 01:12:25;;;;;;;5.43;4.83;;;;;;;16.67;100.00;99363.56;10496483;28;20564;-78
2021/06/05 01:17:51;;;;;;;9.63;4.47;;;;;;;16.67;100.00;99360.78;10497394;28;20211;-77
2021/06/05 01:23:23;;;;;;;12.23;6.10;;;;;;;16.61;100.00;99362.53;10496083;28;20232;-77
2021/06/05 01:28:48;;;;;;;5.20;4.70;;;;;;;16.48;100.00;99359.66;10496908;28;20206;-78
2021/06/05 01:34:08;;;;;;;5.10;4.63;;;;;;;16.39;100.00;99351.13;10495927;28;20692;-77
2021/06/05 01:39:31;;;;;;;6.07;4.60;;;;;;;16.34;100.00;99343.31;10494826;28;20258;-78
2021/06/05 01:44:52;;;;;;;5.80;4.33;;;;;;;16.46;100.00;99339.06;10495968;28;20182;-77
2021/06/05 01:50:13;;;;;;;6.80;5.53;;;;;;;16.54;100.00;99349.56;10495124;28;20207;-80
2021/06/05 01:55:43;;;;;;;7.00;4.70;;;;;;;16.43;100.00;99349.06;10494750;28;20649;-76
2021/06/05 02:01:04;;;;;;;17.90;5.00;;;;;;;16.27;100.00;99349.00;10496613;28;20626;-77
2021/06/05 02:06:25;;;;;;;5.63;4.90;;;;;;;16.13;100.00;99338.19;10508430;28;20210;-79
2021/06/05 02:11:49;;;;;;;6.23;4.37;;;;;;;15.99;100.00;99340.50;10495560;28;20171;-77
2021/06/05 02:17:10;;;;;;;14.53;4.53;;;;;;;15.98;100.00;99336.94;10497023;28;20526;-80
2021/06/05 02:22:31;;;;;;;6.33;3.90;;;;;;;15.96;100.00;99355.22;10502725;28;20174;-77
2021/06/05 02:27:54;;;;;;;5.00;4.20;;;;;;;15.97;100.00;99357.56;10503151;28;20207;-77
2021/06/05 02:33:13;;;;;;;5.60;3.80;;;;;;;15.92;100.00;99359.28;10503043;28;20602;-77
2021/06/05 02:38:34;;;;;;;6.27;4.20;;;;;;;15.92;100.00;99354.50;10501808;28;20178;-77
2021/06/05 02:43:55;;;;;;;4.87;4.40;;;;;;;15.97;100.00;99357.56;10502941;28;20182;-76
2021/06/05 02:49:17;;;;;;;6.80;4.10;;;;;;;15.92;100.00;99351.72;10502224;28;20211;-77
2021/06/05 02:54:37;;;;;;;7.33;4.13;;;;;;;15.85;100.00;99346.34;10500381;28;20820;-76
2021/06/05 02:59:56;;;;;;;5.57;4.43;;;;;;;15.81;100.00;99359.50;10502631;28;20178;-78
2021/06/05 03:05:15;;;;;;;4.87;4.30;;;;;;;15.76;100.00;99354.44;10502175;28;20626;-78
2021/06/05 03:10:35;;;;;;;6.23;4.27;;;;;;;15.75;100.00;99366.75;10500798;28;20182;-77
2021/06/05 03:15:54;;;;;;;4.57;4.17;;;;;;;15.64;100.00;99352.31;10501652;28;20175;-77
2021/06/05 03:21:17;;;;;;;6.30;3.47;;;;;;;15.64;100.00;99357.88;10500363;28;20171;-77
2021/06/05 03:26:36;;;;;;;5.37;4.87;;;;;;;15.53;100.00;99368.38;10500131;28;20296;-78
2021/06/05 03:31:57;;;;;;;5.20;4.80;;;;;;;15.42;100.00;99378.91;10513420;28;20178;-79
2021/06/05 03:37:15;;;;;;;5.10;4.60;;;;;;;15.25;100.00;99391.09;10499815;28;20179;-77
2021/06/05 03:42:35;;;;;;;6.33;5.07;;;;;;;15.21;100.00;99389.56;10499748;28;20179;-77
2021/06/05 03:47:55;;;;;;;7.77;5.80;;;;;;;15.22;100.00;99382.81;10513546;28;20206;-77
2021/06/05 03:53:14;;;;;;;5.77;4.73;;;;;;;15.25;100.00;99388.31;10497889;28;20195;-79
2021/06/05 03:58:38;;;;;;;9.00;6.60;;;;;;;15.40;100.00;99381.31;10500055;28;20626;-79
2021/06/05 04:03:58;;;;;;;8.40;4.93;;;;;;;15.59;100.00;99386.06;10498670;28;20162;-79
2021/06/05 04:09:17;;;;;;;7.80;5.50;;;;;;;15.79;100.00;99386.88;10497891;28;20214;-78
2021/06/05 04:14:37;;;;;;;6.60;4.90;;;;;;;15.96;100.00;99388.53;10499486;28;20578;-78
2021/06/05 04:19:56;;;;;;;6.40;4.63;;;;;;;16.18;100.00;99389.63;10499188;28;20187;-78
2021/06/05 04:25:15;;;;;;;4.93;4.10;;;;;;;16.37;100.00;99392.41;10497777;28;20182;-79
2021/06/05 04:30:36;;;;;;;6.10;5.17;;;;;;;16.47;100.00;99402.50;10498720;28;20616;-78
2021/06/05 04:35:57;;;;;;;5.60;5.10;;;;;;;16.41;100.00;99404.25;10496843;28;20677;-79
2021/06/05 04:41:18;;;;;;;5.80;4.70;;;;;;;16.33;100.00;99411.16;10498231;28;20559;-78
2021/06/05 04:46:38;;;;;;;6.47;3.90;;;;;;;16.28;100.00;99405.28;10497220;28;20201;-78
2021/06/05 04:51:57;;;;;;;6.60;5.87;;;;;;;16.41;100.00;99414.56;10496957;28;20226;-79
2021/06/05 04:57:17;;;;;;;7.20;5.47;;;;;;;16.42;100.00;99410.56;10497021;28;20174;-78
2021/06/05 05:02:36;;;;;;;6.33;4.23;;;;;;;16.53;100.00;99405.56;10497992;28;20170;-78
2021/06/05 05:07:56;;;;;;;4.87;4.30;;;;;;;16.60;100.00;99397.06;10496255;28;20202;-77
2021/06/05 05:13:19;;;;;;;5.07;4.03;;;;;;;16.68;100.00;99392.91;10496035;28;20175;-77
2021/06/05 05:18:42;;;;;;;6.00;4.20;;;;;;;16.90;100.00;99395.53;10497377;28;20258;-78
2021/06/05 05:24:01;;;;;;;5.00;4.20;;;;;;;17.05;100.00;99407.88;10496413;28;20178;-77
2021/06/05 05:29:20;;;;;;;6.10;4.97;;;;;;;17.22;100.00;99403.88;10495799;28;20198;-77
2021/06/05 05:34:39;;;;;;;4.97;4.47;;;;;;;17.28;100.00;99412.50;10495839;28;20222;-77
2021/06/05 05:39:58;;;;;;;5.87;3.57;;;;;;;17.36;100.00;99411.91;10483257;28;20618;-76
2021/06/05 05:45:18;;;;;;;4.53;4.13;;;;;;;17.58;100.00;99408.09;10487390;28;20178;-77
2021/06/05 05:50:39;;;;;;;4.23;3.83;;;;;;;17.61;100.00;99412.00;10495784;28;20669;-79
2021/06/05 05:55:58;;;;;;;4.70;4.00;;;;;;;17.59;100.00;99412.47;10502685;28;20257;-77
2021/06/05 06:01:20;;;;;;;8.63;4.30;;;;;;;17.75;100.00;99422.78;10504643;28;20577;-77
2021/06/05 06:06:39;;;;;;;4.50;4.10;;;;;;;18.04;100.00;99423.53;10502960;28;20805;-77
2021/06/05 06:11:58;;;;;;;4.17;3.63;;;;;;;18.27;100.00;99417.72;10504259;28;20179;-78
2021/06/05 06:17:18;;;;;;;4.10;3.80;;;;;;;18.33;100.00;99416.00;10502996;28;20174;-76
2021/06/05 06:22:37;;;;;;;7.73;4.30;;;;;;;18.55;100.00;99423.25;10502573;28;20187;-76
2021/06/05 06:27:56;;;;;;;4.50;3.80;;;;;;;19.06;100.00;99424.81;10502386;28;20618;-76
2021/06/05 06:33:16;;;;;;;3.90;3.60;;;;;;;19.76;100.00;99415.63;10503042;28;20283;-78
2021/06/05 06:38:43;;;;;;;4.27;3.67;;;;;;;20.23;100.00;99424.75;10502068;28;20175;-76
2021/06/05 06:44:05;;;;;;;4.10;3.70;;;;;;;20.85;100.00;99410.34;10503052;28;20174;-77
2021/06/05 06:49:25;;;;;;;4.27;3.87;;;;;;;21.57;100.00;99410.56;10501376;28;20308;-77
2021/06/05 06:54:45;;;;;;;3.17;2.63;;;;;;;21.84;100.00;99420.56;10501322;28;20175;-76
2021/06/05 07:00:08;;;;;;;3.33;3.03;;;;;;;22.04;100.00;99415.28;10502588;28;20175;-78
2021/06/05 07:05:27;;;;;;;5.77;3.83;;;;;;;21.98;100.00;99421.97;10500918;28;20637;-77
2021/06/05 07:10:49;;;;;;;4.73;3.13;;;;;;;22.13;100.00;99420.06;10501234;28;20269;-79
2021/06/05 07:16:09;;;;;;;3.30;3.00;;;;;;;22.72;100.00;99406.09;10501757;28;20183;-78
2021/06/05 07:21:28;;;;;;;3.70;3.40;;;;;;;22.65;100.00;99412.84;10500389;28;20208;-78
2021/06/05 07:26:46;;;;;;;3.73;3.30;;;;;;;23.12;100.00;99409.41;10500297;28;20586;-77
2021/06/05 07:32:06;;;;;;;3.20;2.63;;;;;;;23.77;100.00;99407.31;10501013;28;20210;-78
2021/06/05 07:37:26;;;;;;;3.17;2.90;;;;;;;23.31;99.09;99408.06;10498945;28;20178;-76
2021/06/05 07:42:45;;;;;;;2.63;2.43;;;;;;;23.37;96.87;99409.75;10499689;28;20179;-78
2021/06/05 07:48:04;;;;;;;2.67;2.30;;;;;;;22.92;100.00;99417.59;10500168;28;20199;-79
2021/06/05 07:53:24;;;;;;;3.00;2.53;;;;;;;23.15;100.00;99420.44;10498846;28;20194;-79
2021/06/05 07:58:43;;;;;;;2.23;2.07;;;;;;;23.85;94.19;99414.88;10499996;28;20170;-78
2021/06/05 08:04:02;;;;;;;2.93;2.33;;;;;;;24.57;91.92;99417.03;10499625;28;20578;-79
2021/06/05 08:09:21;;;;;;;3.83;2.07;;;;;;;24.32;89.07;99406.31;10498010;28;20218;-79
2021/06/05 08:14:40;;;;;;;2.80;2.60;;;;;;;25.21;93.06;99393.28;10498970;28;20179;-77
2021/06/05 08:19:59;;;;;;;2.70;2.50;;;;;;;25.16;69.02;99394.75;10497832;28;20186;-78
2021/06/05 08:25:19;;;;;;;2.60;2.27;;;;;;;25.83;69.51;99385.94;10497796;28;20204;-80
2021/06/05 08:30:41;;;;;;;3.20;2.90;;;;;;;25.61;63.99;99396.13;10512137;28;20178;-78
2021/06/05 08:36:00;;;;;;;2.30;2.10;;;;;;;26.60;62.68;99390.38;10496649;28;20250;-78
2021/06/05 08:41:28;;;;;;;2.00;1.90;;;;;;;27.21;60.16;99385.97;10498333;28;20178;-79
2021/06/05 08:46:59;;;;;;;4.07;2.53;;;;;;;26.64;60.26;99403.00;10498057;28;20595;-78
2021/06/05 08:52:27;;;;;;;2.07;1.90;;;;;;;25.38;64.30;99399.94;10496984;28;20191;-79
2021/06/05 08:57:51;;;;;;;2.63;2.43;;;;;;;25.30;64.28;99402.38;10498098;28;20171;-77
2021/06/05 09:03:17;;;;;;;2.90;2.10;;;;;;;25.83;61.47;99397.22;10496897;28;20543;-80
2021/06/05 09:08:36;;;;;;;2.30;2.10;;;;;;;25.61;63.43;99391.25;10496041;28;20214;-80
2021/06/05 09:13:55;;;;;;;2.17;1.97;;;;;;;25.39;62.24;99407.88;10496469;28;20661;-77
2021/06/05 09:19:28;;;;;;;2.10;1.90;;;;;;;25.29;65.25;99409.28;10496481;28;20210;-76
2021/06/05 09:24:51;;;;;;;3.30;2.23;;;;;;;24.73;64.39;99408.88;10495256;28;20253;-77
2021/06/05 09:30:35;;;;;;;2.63;2.37;;;;;;;25.16;65.88;99406.03;10516101;28;20198;-78
2021/06/05 09:36:13;;;;;;;3.00;2.00;;;;;;;25.15;66.71;99412.16;10503888;28;20222;-79
2021/06/05 09:41:42;;;;;;;3.70;2.50;;;;;;;24.94;68.17;99415.38;10505497;28;20713;-77
2021/06/05 09:47:28;;;;;;;1.93;1.83;;;;;;;23.76;74.57;99419.78;10504797;28;20605;-76
2021/06/05 09:52:46;;;;;;;2.43;2.23;;;;;;;23.39;77.18;99427.66;10502696;28;20194;-76
2021/06/05 09:58:10;;;;;;;3.13;2.93;;;;;;;23.46;76.53;99430.09;10503639;28;20179;-76
2021/06/05 10:03:33;;;;;;;2.87;2.40;;;;;;;23.46;76.18;99415.31;10504539;28;20198;-77
2021/06/05 10:08:53;;;;;;;4.53;2.10;;;;;;;23.42;76.94;99415.44;10501584;28;20214;-77
2021/06/05 10:14:20;;;;;;;2.00;1.90;;;;;;;23.41;75.30;99411.13;10503060;28;20179;-78
2021/06/05 10:19:48;;;;;;;8.03;2.37;;;;;;;23.62;75.31;99412.06;10503973;28;20166;-76
2021/06/05 10:25:31;;;;;;;3.23;2.80;;;;;;;23.62;75.43;99412.06;10501429;28;20179;-77
2021/06/05 10:31:09;;;;;;;2.57;2.37;;;;;;;23.31;76.42;99420.03;10502692;28;20182;-77
2021/06/05 10:36:37;;;;;;;2.30;2.03;;;;;;;23.64;75.26;99407.53;10501304;28;20426;-77
2021/06/05 10:42:01;;;;;;;2.83;2.53;;;;;;;23.35;76.85;99398.97;10501529;28;20171;-77
2021/06/05 10:47:25;;;;;;;2.60;2.30;;;;;;;23.26;79.03;99395.44;10502745;28;20211;-77
2021/06/05 10:52:52;;;;;;;2.63;2.43;;;;;;;23.24;79.46;99383.16;10500403;28;20198;-77
2021/06/05 10:58:24;;;;;;;2.43;2.23;;;;;;;23.61;78.70;99374.75;10501534;28;20653;-77
2021/06/05 11:03:50;;;;;;;3.20;2.90;;;;;;;23.97;76.27;99370.91;10501150;28;20209;-76
2021/06/05 11:09:24;;;;;;;6.67;2.20;;;;;;;23.95;76.88;99362.97;10500247;28;20557;-76
2021/06/05 11:14:44;;;;;;;2.77;2.57;;;;;;;23.59;77.02;99363.22;10500973;28;20183;-77
2021/06/05 11:20:08;;;;;;;2.13;1.70;;;;;;;23.49;76.42;99358.94;10501598;28;20192;-77
2021/06/05 11:25:36;;;;;;;2.03;1.93;;;;;;;23.31;77.28;99349.09;10500321;28;20725;-76
2021/06/05 11:30:56;;;;;;;2.43;2.17;;;;;;;23.96;77.70;99344.84;10500127;28;20269;-76
2021/06/05 11:36:37;;;;;;;2.37;2.17;;;;;;;24.73;73.19;99354.63;10497897;28;20301;-78
2021/06/05 11:41:58;;;;;;;2.00;1.80;;;;;;;24.29;73.18;99356.69;10499820;28;20261;-76
2021/06/05 11:47:21;;;;;;;1.73;1.63;;;;;;;24.86;72.74;99346.66;10500107;28;20614;-77
2021/06/05 11:52:41;;;;;;;3.47;1.80;;;;;;;25.64;67.80;99345.19;10498238;28;20194;-76
2021/06/05 11:58:19;;;;;;;2.60;2.40;;;;;;;27.14;60.77;99344.06;10500121;28;20191;-76
2021/06/05 12:03:44;;;;;;;3.50;2.80;;;;;;;27.48;58.15;99333.22;10498995;28;20179;-77
2021/06/05 12:09:23;;;;;;;2.10;2.00;;;;;;;27.76;57.13;99334.13;10498042;28;20202;-76
2021/06/05 12:20:22;;;;;;;2.80;2.60;;;;;;;28.18;58.31;99321.88;10498506;28;20179;-77
2021/06/05 12:25:44;;;;;;;1.93;1.83;;;;;;;28.05;55.50;99322.38;10497821;28;20175;-76
2021/06/05 12:31:25;;;;;;;2.40;2.20;;;;;;;28.04;56.21;99317.22;10498681;28;20178;-75
2021/06/05 12:36:46;;;;;;;3.33;2.30;;;;;;;28.29;55.16;99305.72;10497453;28;20205;-76
2021/06/05 12:42:08;;;;;;;2.03;1.93;;;;;;;27.89;55.50;99299.69;10498497;28;20629;-77
2021/06/05 12:47:31;;;;;;;2.73;1.67;;;;;;;28.15;53.21;99291.78;10496974;28;20222;-77
2021/06/05 12:52:53;;;;;;;2.03;1.93;;;;;;;29.03;50.69;99284.06;10496592;28;20167;-76
2021/06/05 12:58:29;;;;;;;3.20;2.17;;;;;;;29.47;52.17;99284.69;10496422;28;20194;-77
2021/06/05 13:03:48;;;;;;;2.60;2.00;;;;;;;29.32;46.48;99289.88;10496422;28;20633;-76
2021/06/05 13:09:41;;;;;;;1.70;1.60;;;;;;;28.91;47.77;99277.63;10495523;28;20210;-74
2021/06/05 13:15:18;;;;;;;2.33;2.13;;;;;;;29.29;47.90;99277.50;10497977;28;20194;-75
2021/06/05 13:20:55;;;;;;;1.83;1.73;;;;;;;29.94;46.32;99260.72;10497376;28;20182;-74
2021/06/05 13:26:35;;;;;;;4.30;1.90;;;;;;;30.28;44.76;99246.53;10497124;28;20661;-76
2021/06/05 13:31:58;;;;;;;2.43;2.23;;;;;;;29.67;45.04;99233.25;10496619;28;20275;-76
2021/06/05 13:37:35;;;;;;;2.40;2.30;;;;;;;28.75;49.08;99238.78;10495810;28;20194;-75
2021/06/05 13:42:55;;;;;;;2.07;1.97;;;;;;;27.49;51.42;99238.69;10496887;28;20175;-78
2021/06/05 13:48:14;;;;;;;3.20;2.00;;;;;;;26.99;53.48;99231.25;10496362;28;20206;-76
2021/06/05 13:53:37;;;;;;;3.03;2.80;;;;;;;28.48;53.57;99224.63;10480029;28;20190;-76
2021/06/05 13:58:57;;;;;;;9.30;2.70;;;;;;;29.38;50.46;99219.78;10454306;28;20270;-76
2021/06/05 14:04:17;;;;;;;3.30;2.30;;;;;;;28.00;51.31;99229.78;10453694;28;20183;-74
2021/06/05 14:09:36;;;;;;;2.20;2.10;;;;;;;26.92;56.13;99237.38;10475602;28;20206;-75
2021/06/05 14:14:56;;;;;;;10.30;2.43;;;;;;;26.56;58.40;99251.53;10499873;28;20183;-76
2021/06/05 14:20:19;;;;;;;1.87;1.77;;;;;;;26.44;58.65;99249.91;10503904;28;20182;-75
2021/06/05 14:25:38;;;;;;;2.60;2.40;;;;;;;26.09;60.47;99245.75;10501444;28;20179;-74
2021/06/05 14:31:00;;;;;;;2.70;2.50;;;;;;;25.71;62.58;99239.72;10502424;28;20178;-76
2021/06/05 14:36:20;;;;;;;3.70;3.40;;;;;;;26.38;61.38;99251.88;10500378;28;20680;-75
2021/06/05 14:41:58;;;;;;;2.80;2.60;;;;;;;25.69;63.09;99256.34;10502807;28;20179;-75
2021/06/05 14:47:17;;;;;;;2.70;2.50;;;;;;;24.92;64.28;99254.63;10501667;28;20440;-76
2021/06/05 14:52:36;;;;;;;2.80;2.60;;;;;;;25.20;65.53;99248.09;10500445;28;20622;-76
2021/06/05 14:57:57;;;;;;;4.33;2.80;;;;;;;25.08;65.89;99266.88;10502644;28;20186;-75
2021/06/05 15:03:17;;;;;;;14.33;3.00;;;;;;;24.99;64.81;99271.88;10502356;28;20524;-75
2021/06/05 15:08:36;;;;;;;3.07;2.87;;;;;;;24.76;65.82;99280.50;10500566;28;20206;-75
2021/06/05 15:13:54;;;;;;;2.90;2.70;;;;;;;24.45;70.11;99289.47;10500889;28;20175;-74
2021/06/05 15:19:13;;;;;;;3.60;3.37;;;;;;;24.49;69.78;99292.09;10501384;28;20186;-75
2021/06/05 15:24:32;;;;;;;3.43;3.13;;;;;;;24.37;73.60;99293.94;10497863;28;20186;-74
2021/06/05 15:29:53;;;;;;;4.60;4.20;;;;;;;24.49;74.18;99283.66;10499635;28;20241;-74
2021/06/05 15:35:13;;;;;;;3.70;3.40;;;;;;;24.29;75.38;99287.16;10499385;28;20214;-74
2021/06/05 15:40:33;;;;;;;3.80;3.40;;;;;;;23.92;76.77;99279.59;10498542;28;20174;-74
2021/06/05 15:45:55;;;;;;;4.50;3.90;;;;;;;24.28;73.96;99276.41;10500683;28;20182;-76
2021/06/05 15:51:19;;;;;;;4.23;2.97;;;;;;;24.06;79.09;99295.72;10499109;28;20468;-76
2021/06/05 15:56:39;;;;;;;4.97;2.00;;;;;;;23.74;76.17;99296.66;10500202;28;20615;-75
2021/06/05 16:01:58;;;;;;;1.60;1.50;;;;;;;24.03;72.22;99312.78;10499981;28;20182;-77
2021/06/05 16:07:17;;;;;;;1.67;1.57;;;;;;;23.88;69.36;99335.22;10498068;28;20206;-77
2021/06/05 16:12:36;;;;;;;1.93;1.67;;;;;;;24.12;70.48;99352.00;10499609;28;20167;-76
2021/06/05 16:17:56;;;;;;;1.57;1.40;;;;;;;23.85;68.22;99353.03;10499107;28;20794;-75
2021/06/05 16:23:16;;;;;;;1.70;1.50;;;;;;;23.80;71.06;99348.09;10497175;28;20617;-75
2021/06/05 16:28:36;;;;;;;1.67;1.57;;;;;;;23.81;71.47;99349.66;10498512;28;20206;-76
2021/06/05 16:33:56;;;;;;;2.17;1.90;;;;;;;23.67;76.84;99324.31;10497238;28;20574;-74
2021/06/05 16:39:17;;;;;;;1.90;1.80;;;;;;;23.47;76.13;99319.31;10496855;28;20612;-75
2021/06/05 16:44:38;;;;;;;1.87;1.77;;;;;;;23.14;79.25;99319.88;10497303;28;20199;-76
2021/06/05 16:49:57;;;;;;;3.00;2.80;;;;;;;22.86;80.18;99324.84;10497561;28;20206;-75
2021/06/05 16:55:16;;;;;;;7.67;2.30;;;;;;;22.67;82.33;99343.00;10495727;28;20171;-75
2021/06/05 17:00:46;;;;;;;2.33;1.97;;;;;;;22.38;84.42;99350.44;10497931;28;20175;-75
2021/06/05 17:06:07;;;;;;;2.40;2.00;;;;;;;22.36;84.58;99361.38;10496301;28;20224;-75
2021/06/05 17:11:27;;;;;;;3.40;2.27;;;;;;;22.13;92.46;99370.41;10497655;28;20182;-76
2021/06/05 17:16:46;;;;;;;3.33;2.60;;;;;;;21.93;99.09;99372.94;10497402;28;20179;-81
2021/06/05 17:22:05;;;;;;;3.30;3.00;;;;;;;21.39;100.00;99383.31;10496394;28;20170;-81
2021/06/05 17:27:25;;;;;;;7.80;3.10;;;;;;;20.77;100.00;99371.94;10497337;28;20210;-83
2021/06/05 17:32:44;;;;;;;3.10;2.70;;;;;;;20.65;100.00;99367.19;10495958;28;20680;-81
2021/06/05 17:38:04;;;;;;;6.90;3.07;;;;;;;20.54;100.00;99370.41;10495642;28;20206;-82
2021/06/05 17:43:25;;;;;;;6.17;2.83;;;;;;;20.44;100.00;99363.22;10505994;28;20242;-83
2021/06/05 17:48:45;;;;;;;3.47;2.97;;;;;;;20.43;100.00;99364.47;10510294;28;20210;-83
2021/06/05 17:54:18;;;;;;;3.23;2.30;;;;;;;20.36;100.00;99378.69;10516195;28;20253;-83
2021/06/05 17:59:37;;;;;;;7.70;3.57;;;;;;;20.32;100.00;99358.50;10512637;28;20203;-80
2021/06/05 18:04:56;;;;;;;5.00;2.63;;;;;;;20.35;100.00;99377.16;10504997;28;20633;-81
2021/06/05 18:10:15;;;;;;;2.70;2.50;;;;;;;20.26;100.00;99376.31;10502955;28;20203;-77
2021/06/05 18:15:35;;;;;;;4.67;3.03;;;;;;;20.14;100.00;99377.97;10503794;28;20183;-81
2021/06/05 18:20:55;;;;;;;4.30;3.17;;;;;;;20.02;100.00;99366.09;10503402;28;20261;-80
2021/06/05 18:26:16;;;;;;;3.20;3.00;;;;;;;19.93;100.00;99352.78;10503934;28;20194;-79
2021/06/05 18:31:37;;;;;;;3.43;3.13;;;;;;;20.00;100.00;99349.00;10503751;28;20183;-79
2021/06/05 18:36:57;;;;;;;2.97;2.67;;;;;;;19.93;100.00;99352.03;10501231;28;20237;-80
2021/06/05 18:42:17;;;;;;;3.77;3.47;;;;;;;20.03;100.00;99344.03;10503179;28;20182;-81
2021/06/05 18:47:37;;;;;;;3.90;3.00;;;;;;;20.04;100.00;99354.00;10502881;28;20206;-79
2021/06/05 18:52:57;;;;;;;2.87;2.60;;;;;;;19.79;100.00;99360.94;10501554;28;20178;-78
2021/06/05 18:58:22;;;;;;;3.40;2.50;;;;;;;19.78;100.00;99365.72;10501572;28;20261;-81
2021/06/05 19:03:41;;;;;;;3.50;3.20;;;;;;;19.61;100.00;99383.09;10501487;28;20613;-78
2021/06/05 19:09:05;;;;;;;2.57;2.30;;;;;;;19.60;100.00;99382.31;10500470;28;20199;-77
2021/06/05 19:14:30;;;;;;;2.50;2.30;;;;;;;19.44;100.00;99390.84;10501998;28;20179;-76
2021/06/05 19:19:49;;;;;;;4.60;2.57;;;;;;;19.50;100.00;99403.03;10500914;28;20175;-79
2021/06/05 19:25:12;;;;;;;10.90;2.77;;;;;;;19.41;100.00;99402.94;10499626;28;20611;-76
2021/06/05 19:30:39;;;;;;;3.30;3.00;;;;;;;19.40;100.00;99415.31;10499867;28;21350;-80
2021/06/05 19:36:00;;;;;;;3.20;2.90;;;;;;;19.41;100.00;99430.84;10499060;28;20590;-78
2021/06/05 19:41:20;;;;;;;6.13;3.53;;;;;;;19.45;100.00;99434.28;10501102;28;20613;-77
2021/06/05 19:46:40;;;;;;;3.07;2.40;;;;;;;19.30;100.00;99447.16;10500547;28;20282;-81
2021/06/05 19:52:00;;;;;;;3.57;2.70;;;;;;;19.15;100.00;99447.28;10498492;28;20178;-80
2021/06/05 19:57:21;;;;;;;2.77;2.37;;;;;;;19.13;100.00;99442.16;10500156;28;20175;-78
2021/06/05 20:02:40;;;;;;;3.17;2.67;;;;;;;19.08;100.00;99445.44;10500220;28;20265;-79
2021/06/05 20:07:59;;;;;;;4.90;2.27;;;;;;;19.04;100.00;99438.44;10498432;28;20218;-81
2021/06/05 20:13:19;;;;;;;5.30;2.97;;;;;;;18.79;100.00;99458.75;10499076;28;20175;-80
2021/06/05 20:18:40;;;;;;;3.63;3.20;;;;;;;18.73;100.00;99454.94;10499453;28;20178;-80
2021/06/05 20:24:01;;;;;;;3.93;2.37;;;;;;;18.59;100.00;99457.38;10497804;28;20179;-81
2021/06/05 20:29:21;;;;;;;2.93;2.70;;;;;;;18.57;100.00;99460.63;10497319;28;20206;-79
2021/06/05 20:34:42;;;;;;;2.60;2.37;;;;;;;18.52;100.00;99458.34;10498048;28;20214;-79
2021/06/05 20:40:03;;;;;;;3.50;3.20;;;;;;;18.59;100.00;99463.72;10497251;28;20183;-76
2021/06/05 20:45:29;;;;;;;2.80;2.60;;;;;;;18.61;100.00;99466.84;10498277;28;20588;-77
2021/06/05 20:50:48;;;;;;;3.50;3.00;;;;;;;18.63;100.00;99469.19;10497706;28;20210;-79
2021/06/05 20:56:10;;;;;;;2.63;2.37;;;;;;;18.50;100.00;99469.16;10498185;28;20178;-78
2021/06/05 21:01:30;;;;;;;3.50;2.33;;;;;;;18.56;100.00;99475.75;10497858;28;20179;-79
2021/06/05 21:06:49;;;;;;;3.20;2.73;;;;;;;18.50;100.00;99471.19;10496156;28;20237;-79
2021/06/05 21:12:09;;;;;;;5.53;4.43;;;;;;;18.49;100.00;99480.75;10496598;28;20641;-78
2021/06/05 21:17:28;;;;;;;4.33;4.00;;;;;;;18.52;100.00;99479.88;10497884;28;20207;-81
2021/06/05 21:22:47;;;;;;;2.80;2.50;;;;;;;18.37;100.00;99478.72;10496074;28;20254;-79
2021/06/05 21:28:06;;;;;;;6.13;3.20;;;;;;;18.20;100.00;99481.97;10496674;28;20206;-80
2021/06/05 21:33:27;;;;;;;3.20;2.60;;;;;;;18.11;100.00;99484.59;10496866;28;20226;-78
2021/06/05 21:38:46;;;;;;;3.00;2.80;;;;;;;18.14;100.00;99480.94;10495926;28;20617;-79
2021/06/05 21:44:06;;;;;;;2.73;2.47;;;;;;;18.08;100.00;99480.69;10496251;28;20174;-77
2021/06/05 21:49:25;;;;;;;2.63;2.43;;;;;;;17.90;100.00;99482.41;10496413;28;20202;-79
2021/06/05 21:54:44;;;;;;;2.90;2.70;;;;;;;17.97;100.00;99491.34;10494140;28;20242;-77
2021/06/05 22:00:33;;;;;;;4.03;2.90;;;;;;;17.87;100.00;99477.72;10496992;28;20167;-78
2021/06/05 22:05:59;;;;;;;3.10;2.87;;;;;;;17.90;100.00;99474.06;10495980;28;20202;-77
2021/06/05 22:11:33;;;;;;;3.47;2.53;;;;;;;17.98;100.00;99467.84;10496553;28;20187;-78
2021/06/05 22:16:57;;;;;;;3.50;2.57;;;;;;;18.02;100.00;99462.97;10496372;28;20175;-79
2021/06/05 22:22:26;;;;;;;3.13;2.57;;;;;;;18.10;100.00;99458.78;10495231;28;20261;-80
2021/06/05 22:27:54;;;;;;;1.77;1.60;;;;;;;18.06;100.00;99460.09;10496171;28;20215;-77
2021/06/05 22:33:20;;;;;;;3.20;2.90;;;;;;;18.06;100.00;99451.75;10495825;28;20230;-79
2021/06/05 22:38:39;;;;;;;3.13;2.93;;;;;;;17.95;100.00;99456.81;10502229;28;20179;-79
2021/06/05 22:44:00;;;;;;;3.10;2.80;;;;;;;17.84;100.00;99457.09;10502433;28;20167;-80
2021/06/05 22:49:20;;;;;;;3.23;2.93;;;;;;;17.77;100.00;99448.16;10502750;28;20206;-79
2021/06/05 22:54:39;;;;;;;2.27;1.73;;;;;;;17.88;100.00;99451.44;10500595;28;20178;-81
2021/06/05 22:59:58;;;;;;;2.97;2.67;;;;;;;17.84;100.00;99450.75;10502868;28;20178;-80
2021/06/05 23:05:19;;;;;;;5.23;3.50;;;;;;;17.80;100.00;99442.50;10502482;28;20668;-78
2021/06/05 23:10:38;;;;;;;2.70;2.50;;;;;;;17.78;100.00;99450.50;10500481;28;20587;-79
2021/06/05 23:15:57;;;;;;;3.23;2.20;;;;;;;17.84;100.00;99440.41;10501341;28;20171;-77
2021/06/05 23:21:23;;;;;;;3.10;2.00;;;;;;;17.76;100.00;99432.69;10500837;28;20282;-77
2021/06/05 23:26:42;;;;;;;1.93;1.73;;;;;;;17.66;100.00;99437.31;10501740;28;20202;-79
2021/06/05 23:32:01;;;;;;;2.53;1.80;;;;;;;17.64;100.00;99436.19;10500325;28;20572;-78
2021/06/05 23:37:22;;;;;;;2.47;2.27;;;;;;;17.68;100.00;99436.88;10499972;28;20170;-77
2021/06/05 23:42:41;;;;;;;2.70;1.70;;;;;;;17.65;100.00;99437.75;10500944;28;20171;-77
2021/06/05 23:48:01;;;;;;;4.03;2.37;;;;;;;17.74;100.00;99447.03;10499658;28;20206;-77
2021/06/05 23:53:22;;;;;;;2.80;2.00;;;;;;;17.75;100.00;99442.25;10499541;28;20210;-77
2021/06/05 23:58:42;;;;;;;2.83;2.50;;;;;;;17.55;100.00;99441.59;10500545;28;20187;-77
